sensor_id;sensor_type;location;lat;lon;timestamp;pressure;altitude;pressure_sealevel;temperature;humidity
23223;BME280;11780;13.904;100.620;2024-01-10T00:02:23;101109.28;;;30.22;66.80
23223;BME280;11780;13.904;100.620;2024-01-10T00:04:53;101122.28;;;30.22;66.78
23223;BME280;11780;13.904;100.620;2024-01-10T00:07:24;101132.03;;;30.19;67.00
23223;BME280;11780;13.904;100.620;2024-01-10T00:09:54;101120.97;;;30.19;66.86
23223;BME280;11780;13.904;100.620;2024-01-10T00:12:26;101135.06;;;30.18;67.08
23223;BME280;11780;13.904;100.620;2024-01-10T00:14:56;101128.13;;;30.20;66.95
23223;BME280;11780;13.904;100.620;2024-01-10T00:17:26;101142.22;;;30.19;67.05
23223;BME280;11780;13.904;100.620;2024-01-10T00:19:56;101141.72;;;30.17;66.94
23223;BME280;11780;13.904;100.620;2024-01-10T00:22:27;101148.06;;;30.17;66.86
23223;BME280;11780;13.904;100.620;2024-01-10T00:24:57;101151.94;;;30.16;66.80
23223;BME280;11780;13.904;100.620;2024-01-10T00:27:28;101154.50;;;30.13;66.74
23223;BME280;11780;13.904;100.620;2024-01-10T00:29:58;101161.34;;;30.15;66.89
23223;BME280;11780;13.904;100.620;2024-01-10T00:32:28;101168.78;;;30.15;66.66
23223;BME280;11780;13.904;100.620;2024-01-10T00:34:59;101171.25;;;30.16;66.69
23223;BME280;11780;13.904;100.620;2024-01-10T00:37:29;101173.81;;;30.13;66.76
23223;BME280;11780;13.904;100.620;2024-01-10T00:40:00;101180.16;;;30.13;66.74
23223;BME280;11780;13.904;100.620;2024-01-10T00:42:30;101190.66;;;30.11;67.00
23223;BME280;11780;13.904;100.620;2024-01-10T00:45:01;101191.50;;;30.12;66.92
23223;BME280;11780;13.904;100.620;2024-01-10T00:47:31;101194.25;;;30.12;66.90
23223;BME280;11780;13.904;100.620;2024-01-10T00:50:02;101191.00;;;30.10;66.77
23223;BME280;11780;13.904;100.620;2024-01-10T00:52:32;101207.41;;;30.15;66.70
23223;BME280;11780;13.904;100.620;2024-01-10T00:55:02;101206.28;;;30.16;66.43
23223;BME280;11780;13.904;100.620;2024-01-10T00:57:33;101207.72;;;30.13;66.60
23223;BME280;11780;13.904;100.620;2024-01-10T01:00:07;101208.53;;;30.14;66.91
23223;BME280;11780;13.904;100.620;2024-01-10T01:02:39;101217.31;;;30.16;66.53
23223;BME280;11780;13.904;100.620;2024-01-10T01:05:12;101216.81;;;30.14;66.82
23223;BME280;11780;13.904;100.620;2024-01-10T01:07:42;101232.25;;;30.15;66.80
23223;BME280;11780;13.904;100.620;2024-01-10T01:10:13;101224.28;;;30.13;66.75
23223;BME280;11780;13.904;100.620;2024-01-10T01:12:43;101241.03;;;30.17;66.77
23223;BME280;11780;13.904;100.620;2024-01-10T01:15:14;101240.22;;;30.16;66.73
23223;BME280;11780;13.904;100.620;2024-01-10T01:17:44;101235.53;;;30.17;67.05
23223;BME280;11780;13.904;100.620;2024-01-10T01:20:14;101239.41;;;30.16;66.82
23223;BME280;11780;13.904;100.620;2024-01-10T01:22:45;101243.78;;;30.17;66.92
23223;BME280;11780;13.904;100.620;2024-01-10T01:25:15;101245.75;;;30.16;67.18
23223;BME280;11780;13.904;100.620;2024-01-10T01:27:46;101253.19;;;30.16;67.27
23223;BME280;11780;13.904;100.620;2024-01-10T01:30:16;101252.06;;;30.17;67.15
23223;BME280;11780;13.904;100.620;2024-01-10T01:32:47;101251.28;;;30.16;67.40
23223;BME280;11780;13.904;100.620;2024-01-10T01:35:17;101257.59;;;30.17;67.09
23223;BME280;11780;13.904;100.620;2024-01-10T01:37:51;101266.38;;;30.19;67.35
23223;BME280;11780;13.904;100.620;2024-01-10T01:40:21;101269.97;;;30.19;67.31
23223;BME280;11780;13.904;100.620;2024-01-10T01:42:52;101271.91;;;30.19;67.14
23223;BME280;11780;13.904;100.620;2024-01-10T01:45:23;101277.94;;;30.21;67.65
23223;BME280;11780;13.904;100.620;2024-01-10T01:47:54;101269.66;;;30.21;67.66
23223;BME280;11780;13.904;100.620;2024-01-10T01:50:25;101268.84;;;30.20;67.62
23223;BME280;11780;13.904;100.620;2024-01-10T01:52:55;101269.06;;;30.24;67.29
23223;BME280;11780;13.904;100.620;2024-01-10T01:55:26;101256.38;;;30.23;67.52
23223;BME280;11780;13.904;100.620;2024-01-10T01:57:56;101275.09;;;30.26;67.46
23223;BME280;11780;13.904;100.620;2024-01-10T02:00:27;101272.31;;;30.26;67.46
23223;BME280;11780;13.904;100.620;2024-01-10T02:02:58;101276.72;;;30.27;67.60
23223;BME280;11780;13.904;100.620;2024-01-10T02:05:30;101273.66;;;30.29;67.84
23223;BME280;11780;13.904;100.620;2024-01-10T02:08:00;101281.31;;;30.32;67.68
23223;BME280;11780;13.904;100.620;2024-01-10T02:10:31;101274.16;;;30.31;67.89
23223;BME280;11780;13.904;100.620;2024-01-10T02:13:02;101273.44;;;30.25;67.84
23223;BME280;11780;13.904;100.620;2024-01-10T02:15:32;101272.53;;;30.30;67.56
23223;BME280;11780;13.904;100.620;2024-01-10T02:18:03;101273.03;;;30.32;67.72
23223;BME280;11780;13.904;100.620;2024-01-10T02:20:35;101276.00;;;30.35;68.02
23223;BME280;11780;13.904;100.620;2024-01-10T02:23:06;101271.69;;;30.29;68.10
23223;BME280;11780;13.904;100.620;2024-01-10T02:25:37;101272.09;;;30.36;68.04
23223;BME280;11780;13.904;100.620;2024-01-10T02:28:08;101271.91;;;30.33;68.09
23223;BME280;11780;13.904;100.620;2024-01-10T02:30:41;101270.88;;;30.29;68.39
23223;BME280;11780;13.904;100.620;2024-01-10T02:33:12;101271.31;;;30.36;67.46
23223;BME280;11780;13.904;100.620;2024-01-10T02:35:42;101269.34;;;30.36;67.63
23223;BME280;11780;13.904;100.620;2024-01-10T02:38:13;101265.97;;;30.40;67.30
23223;BME280;11780;13.904;100.620;2024-01-10T02:40:43;101277.03;;;30.40;67.44
23223;BME280;11780;13.904;100.620;2024-01-10T02:43:14;101270.91;;;30.43;67.17
23223;BME280;11780;13.904;100.620;2024-01-10T02:45:44;101271.88;;;30.47;67.06
23223;BME280;11780;13.904;100.620;2024-01-10T02:48:15;101267.19;;;30.47;66.93
23223;BME280;11780;13.904;100.620;2024-01-10T02:50:45;101271.69;;;30.43;67.08
23223;BME280;11780;13.904;100.620;2024-01-10T02:53:16;101269.13;;;30.47;66.80
23223;BME280;11780;13.904;100.620;2024-01-10T02:55:46;101270.16;;;30.51;66.79
23223;BME280;11780;13.904;100.620;2024-01-10T02:58:17;101261.56;;;30.52;66.61
23223;BME280;11780;13.904;100.620;2024-01-10T03:00:48;101270.66;;;30.53;66.73
23223;BME280;11780;13.904;100.620;2024-01-10T03:03:19;101270.38;;;30.55;66.39
23223;BME280;11780;13.904;100.620;2024-01-10T03:05:49;101260.97;;;30.56;66.27
23223;BME280;11780;13.904;100.620;2024-01-10T03:08:19;101268.13;;;30.57;66.47
23223;BME280;11780;13.904;100.620;2024-01-10T03:10:50;101263.44;;;30.57;66.32
23223;BME280;11780;13.904;100.620;2024-01-10T03:13:20;101257.59;;;30.59;66.26
23223;BME280;11780;13.904;100.620;2024-01-10T03:15:51;101259.22;;;30.60;66.19
23223;BME280;11780;13.904;100.620;2024-01-10T03:18:21;101266.19;;;30.57;65.79
23223;BME280;11780;13.904;100.620;2024-01-10T03:20:52;101261.47;;;30.58;65.82
23223;BME280;11780;13.904;100.620;2024-01-10T03:23:22;101257.28;;;30.60;65.67
23223;BME280;11780;13.904;100.620;2024-01-10T03:25:53;101252.06;;;30.59;65.90
23223;BME280;11780;13.904;100.620;2024-01-10T03:28:24;101249.00;;;30.60;64.91
23223;BME280;11780;13.904;100.620;2024-01-10T03:30:54;101252.59;;;30.61;64.51
23223;BME280;11780;13.904;100.620;2024-01-10T03:33:24;101247.56;;;30.63;64.76
23223;BME280;11780;13.904;100.620;2024-01-10T03:35:55;101250.94;;;30.60;64.54
23223;BME280;11780;13.904;100.620;2024-01-10T03:38:25;101238.16;;;30.64;64.14
23223;BME280;11780;13.904;100.620;2024-01-10T03:40:55;101241.22;;;30.62;64.55
23223;BME280;11780;13.904;100.620;2024-01-10T03:43:26;101239.28;;;30.63;64.58
23223;BME280;11780;13.904;100.620;2024-01-10T03:45:59;101231.53;;;30.65;64.25
23223;BME280;11780;13.904;100.620;2024-01-10T03:48:29;101227.13;;;30.64;64.44
23223;BME280;11780;13.904;100.620;2024-01-10T03:51:00;101231.53;;;30.65;64.42
23223;BME280;11780;13.904;100.620;2024-01-10T03:53:30;101227.31;;;30.67;64.53
23223;BME280;11780;13.904;100.620;2024-01-10T03:56:04;101226.19;;;30.68;64.31
23223;BME280;11780;13.904;100.620;2024-01-10T03:58:35;101220.34;;;30.70;63.94
23223;BME280;11780;13.904;100.620;2024-01-10T04:01:06;101210.22;;;30.65;63.83
23223;BME280;11780;13.904;100.620;2024-01-10T04:03:37;101207.97;;;30.67;63.20
23223;BME280;11780;13.904;100.620;2024-01-10T04:06:08;101198.91;;;30.67;62.17
23223;BME280;11780;13.904;100.620;2024-01-10T04:08:38;101195.47;;;30.70;62.46
23223;BME280;11780;13.904;100.620;2024-01-10T04:11:09;101191.31;;;30.73;62.70
23223;BME280;11780;13.904;100.620;2024-01-10T04:13:40;101190.28;;;30.68;62.64
23223;BME280;11780;13.904;100.620;2024-01-10T04:16:10;101188.84;;;30.71;61.94
23223;BME280;11780;13.904;100.620;2024-01-10T04:18:40;101189.97;;;30.70;61.83
23223;BME280;11780;13.904;100.620;2024-01-10T04:21:11;101185.78;;;30.73;61.34
23223;BME280;11780;13.904;100.620;2024-01-10T04:23:42;101175.53;;;30.73;61.02
23223;BME280;11780;13.904;100.620;2024-01-10T04:26:12;101168.56;;;30.76;61.27
23223;BME280;11780;13.904;100.620;2024-01-10T04:28:43;101171.31;;;30.76;61.82
23223;BME280;11780;13.904;100.620;2024-01-10T04:31:13;101166.97;;;30.75;60.92
23223;BME280;11780;13.904;100.620;2024-01-10T04:33:44;101159.47;;;30.75;61.21
23223;BME280;11780;13.904;100.620;2024-01-10T04:36:14;101155.91;;;30.75;61.02
23223;BME280;11780;13.904;100.620;2024-01-10T04:38:45;101153.16;;;30.75;61.34
23223;BME280;11780;13.904;100.620;2024-01-10T04:41:15;101147.91;;;30.73;61.22
23223;BME280;11780;13.904;100.620;2024-01-10T04:43:46;101139.81;;;30.77;60.39
23223;BME280;11780;13.904;100.620;2024-01-10T04:46:16;101135.13;;;30.77;60.11
23223;BME280;11780;13.904;100.620;2024-01-10T04:48:47;101135.13;;;30.77;60.47
23223;BME280;11780;13.904;100.620;2024-01-10T04:51:17;101134.81;;;30.79;60.53
23223;BME280;11780;13.904;100.620;2024-01-10T04:53:48;101120.69;;;30.80;60.88
23223;BME280;11780;13.904;100.620;2024-01-10T04:56:18;101117.09;;;30.80;61.14
23223;BME280;11780;13.904;100.620;2024-01-10T04:58:49;101115.78;;;30.77;61.33
23223;BME280;11780;13.904;100.620;2024-01-10T05:01:19;101111.06;;;30.78;61.14
23223;BME280;11780;13.904;100.620;2024-01-10T05:03:50;101110.97;;;30.83;60.85
23223;BME280;11780;13.904;100.620;2024-01-10T05:06:20;101097.94;;;30.83;61.14
23223;BME280;11780;13.904;100.620;2024-01-10T05:08:51;101094.06;;;30.84;60.58
23223;BME280;11780;13.904;100.620;2024-01-10T05:11:21;101096.03;;;30.84;60.20
23223;BME280;11780;13.904;100.620;2024-01-10T05:13:52;101097.66;;;30.85;59.94
23223;BME280;11780;13.904;100.620;2024-01-10T05:16:23;101086.28;;;30.87;58.94
23223;BME280;11780;13.904;100.620;2024-01-10T05:18:53;101091.81;;;30.87;58.44
23223;BME280;11780;13.904;100.620;2024-01-10T05:21:24;101089.88;;;30.87;58.66
23223;BME280;11780;13.904;100.620;2024-01-10T05:23:54;101090.66;;;30.88;58.16
23223;BME280;11780;13.904;100.620;2024-01-10T05:26:24;101068.91;;;30.86;58.35
23223;BME280;11780;13.904;100.620;2024-01-10T05:28:55;101077.69;;;30.88;58.54
23223;BME280;11780;13.904;100.620;2024-01-10T05:31:25;101072.78;;;30.85;58.99
23223;BME280;11780;13.904;100.620;2024-01-10T05:33:55;101063.72;;;30.93;58.68
23223;BME280;11780;13.904;100.620;2024-01-10T05:36:26;101051.25;;;30.96;58.99
23223;BME280;11780;13.904;100.620;2024-01-10T05:38:56;101046.03;;;30.94;58.82
23223;BME280;11780;13.904;100.620;2024-01-10T05:41:26;101036.09;;;30.93;58.19
23223;BME280;11780;13.904;100.620;2024-01-10T05:43:57;101027.53;;;30.95;57.94
23223;BME280;11780;13.904;100.620;2024-01-10T05:46:27;101020.38;;;30.94;58.44
23223;BME280;11780;13.904;100.620;2024-01-10T05:48:58;101016.28;;;30.91;58.43
23223;BME280;11780;13.904;100.620;2024-01-10T05:51:28;101002.66;;;30.95;57.99
23223;BME280;11780;13.904;100.620;2024-01-10T05:53:59;100999.91;;;30.95;58.56
23223;BME280;11780;13.904;100.620;2024-01-10T05:56:29;100992.91;;;30.97;58.36
23223;BME280;11780;13.904;100.620;2024-01-10T05:58:59;100985.75;;;30.96;58.24
23223;BME280;11780;13.904;100.620;2024-01-10T06:01:30;100978.59;;;30.95;58.20
23223;BME280;11780;13.904;100.620;2024-01-10T06:04:01;100971.16;;;30.96;58.15
23223;BME280;11780;13.904;100.620;2024-01-10T06:06:31;100973.06;;;30.95;58.03
23223;BME280;11780;13.904;100.620;2024-01-10T06:09:02;100963.66;;;30.96;58.16
23223;BME280;11780;13.904;100.620;2024-01-10T06:11:32;100955.38;;;30.96;57.94
23223;BME280;11780;13.904;100.620;2024-01-10T06:14:03;100954.25;;;30.97;57.75
23223;BME280;11780;13.904;100.620;2024-01-10T06:16:33;100940.75;;;30.96;57.95
23223;BME280;11780;13.904;100.620;2024-01-10T06:19:03;100940.09;;;30.99;57.75
23223;BME280;11780;13.904;100.620;2024-01-10T06:21:34;100937.19;;;31.04;57.97
23223;BME280;11780;13.904;100.620;2024-01-10T06:24:05;100927.13;;;30.99;58.47
23223;BME280;11780;13.904;100.620;2024-01-10T06:26:35;100922.38;;;31.00;58.23
23223;BME280;11780;13.904;100.620;2024-01-10T06:29:05;100911.69;;;30.98;57.64
23223;BME280;11780;13.904;100.620;2024-01-10T06:31:36;100907.16;;;31.03;57.94
23223;BME280;11780;13.904;100.620;2024-01-10T06:34:06;100912.66;;;31.03;58.16
23223;BME280;11780;13.904;100.620;2024-01-10T06:36:37;100904.22;;;31.08;57.73
23223;BME280;11780;13.904;100.620;2024-01-10T06:39:10;100900.31;;;31.09;57.98
23223;BME280;11780;13.904;100.620;2024-01-10T06:41:49;100895.25;;;31.02;58.24
23223;BME280;11780;13.904;100.620;2024-01-10T06:44:20;100884.41;;;31.06;57.92
23223;BME280;11780;13.904;100.620;2024-01-10T06:46:50;100885.03;;;31.03;57.79
23223;BME280;11780;13.904;100.620;2024-01-10T06:49:21;100878.06;;;31.05;57.56
23223;BME280;11780;13.904;100.620;2024-01-10T06:51:51;100877.88;;;31.02;56.68
23223;BME280;11780;13.904;100.620;2024-01-10T06:54:22;100879.19;;;31.04;56.91
23223;BME280;11780;13.904;100.620;2024-01-10T06:56:52;100870.09;;;31.04;57.23
23223;BME280;11780;13.904;100.620;2024-01-10T06:59:22;100868.63;;;31.06;56.73
23223;BME280;11780;13.904;100.620;2024-01-10T07:01:53;100867.63;;;31.02;57.00
23223;BME280;11780;13.904;100.620;2024-01-10T07:04:26;100857.25;;;31.08;56.42
23223;BME280;11780;13.904;100.620;2024-01-10T07:06:57;100869.47;;;31.16;56.92
23223;BME280;11780;13.904;100.620;2024-01-10T07:09:28;100849.84;;;31.17;56.78
23223;BME280;11780;13.904;100.620;2024-01-10T07:11:58;100849.34;;;31.15;56.57
23223;BME280;11780;13.904;100.620;2024-01-10T07:14:29;100840.56;;;31.13;56.28
23223;BME280;11780;13.904;100.620;2024-01-10T07:16:59;100837.78;;;31.13;55.95
23223;BME280;11780;13.904;100.620;2024-01-10T07:19:30;100836.13;;;31.12;55.70
23223;BME280;11780;13.904;100.620;2024-01-10T07:22:01;100845.25;;;31.12;55.95
23223;BME280;11780;13.904;100.620;2024-01-10T07:24:32;100827.03;;;31.11;55.78
23223;BME280;11780;13.904;100.620;2024-01-10T07:27:02;100836.31;;;31.16;55.89
23223;BME280;11780;13.904;100.620;2024-01-10T07:29:32;100822.31;;;31.12;55.69
23223;BME280;11780;13.904;100.620;2024-01-10T07:32:03;100818.59;;;31.17;55.47
23223;BME280;11780;13.904;100.620;2024-01-10T07:34:33;100817.31;;;31.14;55.73
23223;BME280;11780;13.904;100.620;2024-01-10T07:37:04;100815.16;;;31.11;55.87
23223;BME280;11780;13.904;100.620;2024-01-10T07:39:34;100808.69;;;31.16;55.41
23223;BME280;11780;13.904;100.620;2024-01-10T07:42:05;100809.03;;;31.14;55.82
23223;BME280;11780;13.904;100.620;2024-01-10T07:44:35;100805.94;;;31.16;55.66
23223;BME280;11780;13.904;100.620;2024-01-10T07:47:06;100801.22;;;31.16;55.99
23223;BME280;11780;13.904;100.620;2024-01-10T07:49:37;100805.44;;;31.22;55.49
23223;BME280;11780;13.904;100.620;2024-01-10T07:52:08;100804.31;;;31.23;55.04
23223;BME280;11780;13.904;100.620;2024-01-10T07:54:38;100801.88;;;31.22;55.33
23223;BME280;11780;13.904;100.620;2024-01-10T07:57:08;100801.22;;;31.25;55.13
23223;BME280;11780;13.904;100.620;2024-01-10T07:59:39;100800.41;;;31.24;55.59
23223;BME280;11780;13.904;100.620;2024-01-10T08:02:09;100793.44;;;31.27;55.17
23223;BME280;11780;13.904;100.620;2024-01-10T13:55:56;101044.75;;;30.69;60.87
23223;BME280;11780;13.904;100.620;2024-01-10T13:58:27;101046.25;;;30.75;60.59
23223;BME280;11780;13.904;100.620;2024-01-10T14:00:58;101045.81;;;30.82;60.58
23223;BME280;11780;13.904;100.620;2024-01-10T14:03:29;101040.16;;;30.87;60.29
23223;BME280;11780;13.904;100.620;2024-01-10T14:06:00;101046.84;;;30.95;59.87
23223;BME280;11780;13.904;100.620;2024-01-10T14:08:31;101039.06;;;30.97;59.86
23223;BME280;11780;13.904;100.620;2024-01-10T14:11:01;101042.50;;;31.03;59.96
23223;BME280;11780;13.904;100.620;2024-01-10T14:13:33;101043.00;;;31.05;59.92
23223;BME280;11780;13.904;100.620;2024-01-10T14:16:04;101037.66;;;31.08;59.97
23223;BME280;11780;13.904;100.620;2024-01-10T14:18:34;101041.72;;;31.11;60.07
23223;BME280;11780;13.904;100.620;2024-01-10T14:21:05;101039.28;;;31.09;59.88
23223;BME280;11780;13.904;100.620;2024-01-10T14:23:36;101046.81;;;31.18;59.85
23223;BME280;11780;13.904;100.620;2024-01-10T14:26:06;101052.03;;;31.19;60.02
23223;BME280;11780;13.904;100.620;2024-01-10T14:28:37;101048.44;;;31.19;59.96
23223;BME280;11780;13.904;100.620;2024-01-10T14:31:07;101052.84;;;31.20;59.63
23223;BME280;11780;13.904;100.620;2024-01-10T14:33:55;101054.66;;;31.24;59.69
23223;BME280;11780;13.904;100.620;2024-01-10T14:36:27;101055.78;;;31.23;59.72
23223;BME280;11780;13.904;100.620;2024-01-10T14:38:57;101062.13;;;31.24;59.93
23223;BME280;11780;13.904;100.620;2024-01-10T14:41:28;101051.88;;;31.24;59.95
23223;BME280;11780;13.904;100.620;2024-01-10T14:43:59;101061.31;;;31.23;59.74
23223;BME280;11780;13.904;100.620;2024-01-10T14:46:29;101055.16;;;31.26;59.69
23223;BME280;11780;13.904;100.620;2024-01-10T14:49:00;101058.25;;;31.25;60.06
23223;BME280;11780;13.904;100.620;2024-01-10T14:51:30;101058.53;;;31.23;60.22
23223;BME280;11780;13.904;100.620;2024-01-10T14:54:01;101060.00;;;31.21;59.94
23223;BME280;11780;13.904;100.620;2024-01-10T14:56:33;101063.91;;;31.20;59.99
23223;BME280;11780;13.904;100.620;2024-01-10T14:59:07;101061.13;;;31.20;60.09
23223;BME280;11780;13.904;100.620;2024-01-10T15:01:44;101069.44;;;31.20;60.05
23223;BME280;11780;13.904;100.620;2024-01-10T15:04:15;101062.28;;;31.19;60.48
23223;BME280;11780;13.904;100.620;2024-01-10T15:06:46;101061.97;;;31.20;60.74
23223;BME280;11780;13.904;100.620;2024-01-10T15:09:16;101065.34;;;31.17;61.15
23223;BME280;11780;13.904;100.620;2024-01-10T15:11:47;101069.13;;;31.21;60.98
23223;BME280;11780;13.904;100.620;2024-01-10T15:14:17;101061.47;;;31.18;61.24
23223;BME280;11780;13.904;100.620;2024-01-10T15:16:48;101069.56;;;31.14;61.35
23223;BME280;11780;13.904;100.620;2024-01-10T15:19:18;101064.84;;;31.15;61.20
23223;BME280;11780;13.904;100.620;2024-01-10T15:21:49;101069.75;;;31.18;61.34
23223;BME280;11780;13.904;100.620;2024-01-10T15:24:20;101066.16;;;31.18;61.24
23223;BME280;11780;13.904;100.620;2024-01-10T15:26:51;101073.03;;;31.20;61.36
23223;BME280;11780;13.904;100.620;2024-01-10T15:29:23;101074.94;;;31.20;61.07
23223;BME280;11780;13.904;100.620;2024-01-10T15:31:53;101071.56;;;31.23;61.08
23223;BME280;11780;13.904;100.620;2024-01-10T15:34:24;101072.19;;;31.20;61.06
23223;BME280;11780;13.904;100.620;2024-01-10T15:36:54;101076.25;;;31.22;61.04
23223;BME280;11780;13.904;100.620;2024-01-10T15:39:25;101074.44;;;31.18;60.89
23223;BME280;11780;13.904;100.620;2024-01-10T15:41:56;101075.28;;;31.18;61.16
23223;BME280;11780;13.904;100.620;2024-01-10T15:44:26;101071.69;;;31.18;61.10
23223;BME280;11780;13.904;100.620;2024-01-10T15:46:57;101072.81;;;31.17;61.08
23223;BME280;11780;13.904;100.620;2024-01-10T15:49:27;101072.00;;;31.16;61.08
23223;BME280;11780;13.904;100.620;2024-01-10T15:51:58;101076.41;;;31.17;61.13
23223;BME280;11780;13.904;100.620;2024-01-10T15:54:28;101073.94;;;31.16;61.05
23223;BME280;11780;13.904;100.620;2024-01-10T15:56:59;101070.38;;;31.15;60.86
23223;BME280;11780;13.904;100.620;2024-01-10T15:59:29;101076.59;;;31.21;61.10
23223;BME280;11780;13.904;100.620;2024-01-10T16:01:59;101082.44;;;31.19;60.96
23223;BME280;11780;13.904;100.620;2024-01-10T16:04:31;101079.34;;;31.21;60.79
23223;BME280;11780;13.904;100.620;2024-01-10T16:07:01;101088.13;;;31.23;60.89
23223;BME280;11780;13.904;100.620;2024-01-10T16:09:32;101087.31;;;31.22;60.95
23223;BME280;11780;13.904;100.620;2024-01-10T16:12:03;101087.00;;;31.24;61.02
23223;BME280;11780;13.904;100.620;2024-01-10T16:14:33;101097.38;;;31.18;60.97
23223;BME280;11780;13.904;100.620;2024-01-10T16:17:04;101092.66;;;31.19;61.10
23223;BME280;11780;13.904;100.620;2024-01-10T16:19:35;101091.53;;;31.20;60.88
23223;BME280;11780;13.904;100.620;2024-01-10T16:22:05;101092.66;;;31.19;61.25
23223;BME280;11780;13.904;100.620;2024-01-10T16:24:35;101086.97;;;31.15;61.48
23223;BME280;11780;13.904;100.620;2024-01-10T16:27:06;101098.03;;;31.15;61.44
23223;BME280;11780;13.904;100.620;2024-01-10T16:29:37;101102.09;;;31.18;61.30
23223;BME280;11780;13.904;100.620;2024-01-10T16:32:07;101098.63;;;31.12;61.67
23223;BME280;11780;13.904;100.620;2024-01-10T16:34:38;101101.38;;;31.12;61.73
23223;BME280;11780;13.904;100.620;2024-01-10T16:37:08;101099.75;;;31.11;61.54
23223;BME280;11780;13.904;100.620;2024-01-10T16:39:39;101096.69;;;31.12;61.80
23223;BME280;11780;13.904;100.620;2024-01-10T16:42:11;101105.19;;;31.16;61.59
23223;BME280;11780;13.904;100.620;2024-01-10T16:44:43;101101.91;;;31.14;61.56
23223;BME280;11780;13.904;100.620;2024-01-10T16:47:14;101100.28;;;31.13;61.74
23223;BME280;11780;13.904;100.620;2024-01-10T16:49:45;101105.19;;;31.16;61.59
23223;BME280;11780;13.904;100.620;2024-01-10T16:52:15;101096.56;;;31.18;61.46
23223;BME280;11780;13.904;100.620;2024-01-10T16:54:46;101101.38;;;31.12;61.89
23223;BME280;11780;13.904;100.620;2024-01-10T16:57:16;101098.81;;;31.16;61.70
23223;BME280;11780;13.904;100.620;2024-01-10T16:59:47;101092.66;;;31.19;61.57
23223;BME280;11780;13.904;100.620;2024-01-10T17:02:18;101090.06;;;31.13;61.88
23223;BME280;11780;13.904;100.620;2024-01-10T17:04:49;101104.03;;;31.17;61.79
23223;BME280;11780;13.904;100.620;2024-01-10T17:07:19;101098.81;;;31.16;61.95
23223;BME280;11780;13.904;100.620;2024-01-10T17:09:50;101099.66;;;31.16;61.93
23223;BME280;11780;13.904;100.620;2024-01-10T17:12:20;101096.38;;;31.14;61.77
23223;BME280;11780;13.904;100.620;2024-01-10T17:14:52;101100.78;;;31.15;62.00
23223;BME280;11780;13.904;100.620;2024-01-10T17:17:22;101095.34;;;31.10;62.02
23223;BME280;11780;13.904;100.620;2024-01-10T17:19:53;101095.06;;;31.11;62.18
23223;BME280;11780;13.904;100.620;2024-01-10T17:22:23;101105.44;;;31.06;62.01
23223;BME280;11780;13.904;100.620;2024-01-10T17:24:57;101096.63;;;31.04;62.43
23223;BME280;11780;13.904;100.620;2024-01-10T17:27:27;101097.25;;;31.01;62.36
23223;BME280;11780;13.904;100.620;2024-01-10T17:29:58;101097.25;;;31.01;62.53
23223;BME280;11780;13.904;100.620;2024-01-10T17:32:29;101095.28;;;31.01;62.32
23223;BME280;11780;13.904;100.620;2024-01-10T17:34:59;101095.63;;;30.99;62.90
23223;BME280;11780;13.904;100.620;2024-01-10T17:37:30;101097.25;;;31.01;62.46
23223;BME280;11780;13.904;100.620;2024-01-10T17:40:01;101099.00;;;30.96;62.57
23223;BME280;11780;13.904;100.620;2024-01-10T17:42:31;101096.59;;;30.95;62.75
23223;BME280;11780;13.904;100.620;2024-01-10T17:45:01;101095.25;;;30.92;62.78
23223;BME280;11780;13.904;100.620;2024-01-10T17:47:32;101096.88;;;30.93;63.12
23223;BME280;11780;13.904;100.620;2024-01-10T17:50:03;101103.22;;;30.94;63.03
23223;BME280;11780;13.904;100.620;2024-01-10T17:52:33;101098.06;;;31.01;62.72
23223;BME280;11780;13.904;100.620;2024-01-10T17:55:05;101088.47;;;30.98;62.86
23223;BME280;11780;13.904;100.620;2024-01-10T17:57:35;101093.50;;;30.96;63.16
23223;BME280;11780;13.904;100.620;2024-01-10T18:00:06;101094.00;;;30.98;62.92
23223;BME280;11780;13.904;100.620;2024-01-10T18:02:39;101087.66;;;30.98;62.77
23223;BME280;11780;13.904;100.620;2024-01-10T18:05:10;101083.56;;;30.95;62.72
23223;BME280;11780;13.904;100.620;2024-01-10T18:07:40;101088.28;;;30.95;63.16
23223;BME280;11780;13.904;100.620;2024-01-10T18:10:11;101090.22;;;30.94;62.85
23223;BME280;11780;13.904;100.620;2024-01-10T18:12:41;101077.53;;;30.93;63.07
23223;BME280;11780;13.904;100.620;2024-01-10T18:15:12;101080.50;;;30.97;63.24
23223;BME280;11780;13.904;100.620;2024-01-10T18:17:42;101079.19;;;30.94;62.88
23223;BME280;11780;13.904;100.620;2024-01-10T18:20:13;101082.44;;;30.96;63.17
23223;BME280;11780;13.904;100.620;2024-01-10T18:22:45;101088.59;;;30.93;63.16
23223;BME280;11780;13.904;100.620;2024-01-10T18:25:15;101075.28;;;30.95;63.25
23223;BME280;11780;13.904;100.620;2024-01-10T18:27:46;101088.09;;;30.91;63.24
23223;BME280;11780;13.904;100.620;2024-01-10T18:30:17;101076.75;;;30.93;63.02
23223;BME280;11780;13.904;100.620;2024-01-10T18:32:48;101077.03;;;30.91;63.31
23223;BME280;11780;13.904;100.620;2024-01-10T18:35:19;101081.44;;;30.92;63.35
23223;BME280;11780;13.904;100.620;2024-01-10T18:37:50;101069.91;;;30.90;63.07
23223;BME280;11780;13.904;100.620;2024-01-10T18:40:21;101075.44;;;30.90;63.19